createdAt,value
2018-11-04T00:02:06.066Z,101075.53
2018-11-04T00:04:34.304Z,101075.78
2018-11-04T00:07:03.803Z,101079.50
2018-11-04T00:09:32.042Z,101075.14
2018-11-04T00:12:00.564Z,101070.81
2018-11-04T00:14:28.677Z,101067.23
2018-11-04T00:16:56.968Z,101063.33
2018-11-04T00:19:24.990Z,101053.55
2018-11-04T00:21:53.089Z,101064.58
2018-11-04T00:24:21.154Z,101059.56
2018-11-04T00:26:49.279Z,101064.46
2018-11-04T00:29:17.346Z,101059.38
2018-11-04T00:31:45.507Z,101050.02
2018-11-04T00:34:13.654Z,101051.23
2018-11-04T00:36:42.261Z,101049.88
2018-11-04T00:39:10.393Z,101044.26
2018-11-04T00:41:38.525Z,101044.97
2018-11-04T00:44:06.635Z,101036.48
2018-11-04T00:46:34.828Z,101037.86
2018-11-04T00:49:03.035Z,101035.75
2018-11-04T00:51:31.249Z,101038.59
2018-11-04T00:53:59.265Z,101031.29
2018-11-04T00:56:27.420Z,101025.05
2018-11-04T00:58:56.053Z,101022.52
2018-11-04T01:01:24.194Z,101024.12
2018-11-04T01:03:52.376Z,101010.83
2018-11-04T01:06:20.455Z,101018.28
2018-11-04T01:08:48.653Z,101017.50
2018-11-04T01:11:16.761Z,101016.56
2018-11-04T01:13:44.890Z,101004.47
2018-11-04T01:16:13.053Z,101007.02
2018-11-04T01:18:41.348Z,100998.94
2018-11-04T01:21:09.493Z,100994.16
2018-11-04T01:23:38.163Z,100992.95
2018-11-04T01:26:06.350Z,100992.45
2018-11-04T01:28:34.628Z,100977.42
2018-11-04T01:31:02.712Z,100983.48
2018-11-04T01:33:31.001Z,100974.09
2018-11-04T01:35:59.047Z,100965.02
2018-11-04T01:38:27.656Z,100960.33
2018-11-04T01:40:55.820Z,100964.58
2018-11-04T01:43:23.978Z,100955.25
2018-11-04T01:45:51.990Z,100953.54
2018-11-04T01:48:20.120Z,100942.70
2018-11-04T01:50:48.173Z,100945.19
2018-11-04T01:53:16.210Z,100939.71
2018-11-04T01:55:44.253Z,100931.59
2018-11-04T01:58:12.361Z,100930.95
2018-11-04T02:00:40.465Z,100936.62
2018-11-04T02:03:08.723Z,100933.97
2018-11-04T02:05:36.828Z,100930.07
2018-11-04T02:08:05.445Z,100920.66
2018-11-04T02:10:33.560Z,100916.31
2018-11-04T02:13:01.634Z,100913.42
2018-11-04T02:15:29.660Z,100913.22
2018-11-04T02:17:57.756Z,100905.98
2018-11-04T02:20:25.821Z,100905.16
2018-11-04T02:22:53.915Z,100898.61
2018-11-04T02:25:22.014Z,100894.20
2018-11-04T02:27:51.166Z,100886.09
2018-11-04T02:30:19.277Z,100883.95
2018-11-04T02:32:48.376Z,100875.75
2018-11-04T02:35:16.505Z,100872.81
2018-11-04T02:37:44.723Z,100874.99
2018-11-04T02:40:13.363Z,100877.22
2018-11-04T02:42:41.428Z,100883.46
2018-11-04T02:45:09.949Z,100875.20
2018-11-04T02:47:38.193Z,100877.42
2018-11-04T02:50:07.071Z,100875.25
2018-11-04T02:52:35.300Z,100876.28
2018-11-04T02:55:03.483Z,100877.11
2018-11-04T02:57:31.569Z,100869.30
2018-11-04T02:59:59.698Z,100871.88
2018-11-04T03:02:27.765Z,100870.80
2018-11-04T03:04:55.871Z,100863.70
2018-11-04T03:07:23.908Z,100858.13
2018-11-04T03:09:52.024Z,100850.05
2018-11-04T03:12:20.064Z,100844.36
2018-11-04T03:14:48.121Z,100844.23
2018-11-04T03:17:16.164Z,100842.13
2018-11-04T03:19:44.217Z,100842.16
2018-11-04T03:22:12.190Z,100839.91
2018-11-04T03:24:40.318Z,100834.59
2018-11-04T03:27:08.369Z,100828.77
2018-11-04T03:29:36.410Z,100824.55
2018-11-04T03:32:04.520Z,100826.89
2018-11-04T03:34:32.647Z,100827.97
2018-11-04T03:37:00.931Z,100819.41
2018-11-04T03:39:28.942Z,100810.94
2018-11-04T03:41:56.990Z,100808.09
2018-11-04T03:44:25.084Z,100816.56
2018-11-04T03:46:53.155Z,100808.05
2018-11-04T03:49:21.221Z,100807.83
2018-11-04T03:51:49.214Z,100803.02
2018-11-04T03:54:17.272Z,100806.44
2018-11-04T03:56:45.305Z,100803.20
2018-11-04T03:59:13.396Z,100799.45
2018-11-04T04:01:41.439Z,100794.16
2018-11-04T04:04:09.858Z,100796.37
2018-11-04T04:06:37.864Z,100794.52
2018-11-04T04:09:07.746Z,100795.80
2018-11-04T04:11:35.816Z,100796.83
2018-11-04T04:14:03.936Z,100797.10
2018-11-04T04:16:31.928Z,100782.17
2018-11-04T04:19:00.029Z,100789.13
2018-11-04T04:21:28.039Z,100790.90
2018-11-04T04:23:56.089Z,100788.36
2018-11-04T04:26:24.257Z,100780.60
2018-11-04T04:28:52.745Z,100783.48
2018-11-04T04:31:20.788Z,100788.00
2018-11-04T04:33:48.829Z,100783.58
2018-11-04T04:36:16.903Z,100782.98
2018-11-04T04:38:45.078Z,100783.13
2018-11-04T04:41:13.203Z,100781.46
2018-11-04T04:43:41.215Z,100783.47
2018-11-04T04:46:09.232Z,100778.69
2018-11-04T04:48:37.182Z,100776.88
2018-11-04T04:51:11.976Z,100774.95
2018-11-04T04:53:39.986Z,100771.70
2018-11-04T04:56:08.128Z,100770.27
2018-11-04T04:58:36.150Z,100766.46
2018-11-04T05:01:04.242Z,100764.77
2018-11-04T05:03:32.265Z,100765.54
2018-11-04T05:06:00.373Z,100758.24
2018-11-04T05:08:28.397Z,100753.81
2018-11-04T05:10:56.422Z,100753.36
2018-11-04T05:13:24.388Z,100756.19
2018-11-04T05:15:52.468Z,100758.98
2018-11-04T05:18:20.498Z,100757.02
2018-11-04T05:20:48.588Z,100748.74
2018-11-04T05:23:16.593Z,100752.45
2018-11-04T05:25:44.668Z,100754.16
2018-11-04T05:28:12.675Z,100759.98
2018-11-04T05:30:40.763Z,100759.00
2018-11-04T05:33:08.773Z,100760.14
2018-11-04T05:35:36.867Z,100751.92
2018-11-04T05:38:05.012Z,100756.26
2018-11-04T05:40:33.139Z,100753.86
2018-11-04T05:43:01.139Z,100765.02
2018-11-04T05:45:29.196Z,100759.50
2018-11-04T05:47:57.204Z,100752.34
2018-11-04T05:50:25.269Z,100752.18
2018-11-04T05:52:53.289Z,100755.95
2018-11-04T05:55:21.430Z,100744.94
2018-11-04T05:57:49.531Z,100743.33
2018-11-04T06:00:17.630Z,100746.61
2018-11-04T06:02:45.685Z,100740.80
2018-11-04T06:05:13.745Z,100743.94
2018-11-04T06:07:41.761Z,100746.96
2018-11-04T06:10:09.780Z,100739.64
2018-11-04T06:12:37.976Z,100745.41
2018-11-04T06:15:07.185Z,100745.55
2018-11-04T06:17:35.249Z,100746.29
2018-11-04T06:20:03.312Z,100741.66
2018-11-04T06:22:31.564Z,100750.53
2018-11-04T06:24:59.617Z,100751.93
2018-11-04T06:27:27.665Z,100750.16
2018-11-04T06:29:56.749Z,100751.61
2018-11-04T06:32:24.742Z,100747.12
2018-11-04T06:34:52.722Z,100749.09
2018-11-04T06:37:20.869Z,100759.37
2018-11-04T06:39:49.107Z,100751.61
2018-11-04T06:42:17.280Z,100750.05
2018-11-04T06:44:45.294Z,100747.83
2018-11-04T06:47:13.503Z,100745.86
2018-11-04T06:49:41.440Z,100744.89
2018-11-04T06:52:09.548Z,100739.61
2018-11-04T06:54:37.578Z,100738.77
2018-11-04T06:57:05.708Z,100738.58
2018-11-04T06:59:33.809Z,100741.55
2018-11-04T07:02:01.889Z,100735.33
2018-11-04T07:04:30.059Z,100737.99
2018-11-04T07:06:58.938Z,100742.86
2018-11-04T07:09:27.023Z,100735.08
2018-11-04T07:11:55.153Z,100731.97
2018-11-04T07:14:23.173Z,100731.71
2018-11-04T07:16:51.229Z,100745.91
2018-11-04T07:19:19.218Z,100739.23
2018-11-04T07:21:47.259Z,100737.15
2018-11-04T07:24:15.253Z,100738.72
2018-11-04T07:26:43.324Z,100734.88
2018-11-04T07:29:11.348Z,100735.06
2018-11-04T07:31:39.390Z,100733.16
2018-11-04T07:34:07.679Z,100737.59
2018-11-04T07:36:35.758Z,100728.36
2018-11-04T07:39:06.243Z,100729.62
2018-11-04T07:41:34.309Z,100729.99
2018-11-04T07:44:02.403Z,100725.70
2018-11-04T07:46:30.499Z,100725.62
2018-11-04T07:48:58.493Z,100722.13
2018-11-04T07:51:26.556Z,100724.05
2018-11-04T07:53:54.820Z,100725.47
2018-11-04T07:56:23.556Z,100714.80
2018-11-04T07:58:51.613Z,100715.50
2018-11-04T08:01:19.853Z,100708.22
2018-11-04T08:03:48.001Z,100708.17
2018-11-04T08:06:16.125Z,100709.48
2018-11-04T08:08:44.224Z,100706.97
2018-11-04T08:11:12.515Z,100713.27
2018-11-04T08:13:41.677Z,100717.02
2018-11-04T08:16:09.951Z,100709.20
2018-11-04T08:18:38.819Z,100709.73
2018-11-04T08:21:07.020Z,100703.94
2018-11-04T08:23:35.141Z,100698.48
2018-11-04T08:26:03.235Z,100697.05
2018-11-04T08:28:31.317Z,100698.63
2018-11-04T08:31:00.409Z,100697.37
2018-11-04T08:33:29.061Z,100696.30
2018-11-04T08:35:56.995Z,100697.08
2018-11-04T08:38:25.170Z,100698.19
2018-11-04T08:40:53.241Z,100688.00
2018-11-04T08:43:21.315Z,100681.52
2018-11-04T08:45:49.447Z,100686.36
2018-11-04T08:48:17.461Z,100682.83
2018-11-04T08:50:45.439Z,100674.91
2018-11-04T08:53:13.556Z,100674.23
2018-11-04T08:55:41.571Z,100674.03
2018-11-04T08:58:09.604Z,100666.88
2018-11-04T09:00:37.710Z,100667.59
2018-11-04T09:03:05.840Z,100667.05
2018-11-04T09:05:33.805Z,100661.62
2018-11-04T09:08:01.818Z,100659.89
2018-11-04T09:10:29.755Z,100658.65
2018-11-04T09:12:57.785Z,100657.21
2018-11-04T09:15:25.801Z,100657.25
2018-11-04T09:17:53.910Z,100653.45
2018-11-04T09:20:21.987Z,100653.15
2018-11-04T09:22:50.185Z,100651.61
2018-11-04T09:25:18.241Z,100652.00
2018-11-04T09:27:46.344Z,100649.41
2018-11-04T09:30:16.106Z,100645.47
2018-11-04T09:32:44.126Z,100639.69
2018-11-04T09:35:12.542Z,100634.10
2018-11-04T09:37:40.704Z,100631.38
2018-11-04T09:40:10.256Z,100625.95
2018-11-04T09:42:38.308Z,100625.00
2018-11-04T09:45:07.347Z,100632.56
2018-11-04T09:47:35.629Z,100629.35
2018-11-04T09:50:04.091Z,100629.86
2018-11-04T09:52:32.104Z,100625.38
2018-11-04T09:55:00.769Z,100626.19
2018-11-04T09:57:28.769Z,100630.72
2018-11-04T09:59:56.816Z,100632.45
2018-11-04T10:02:24.813Z,100624.83
2018-11-04T10:04:52.825Z,100626.83
2018-11-04T10:07:20.846Z,100628.94
2018-11-04T10:09:49.108Z,100626.10
2018-11-04T10:12:17.229Z,100627.59
2018-11-04T10:14:45.213Z,100624.48
2018-11-04T10:17:13.299Z,100622.66
2018-11-04T10:19:41.389Z,100616.95
2018-11-04T10:22:09.536Z,100621.06
2018-11-04T10:24:37.553Z,100619.58
2018-11-04T10:27:05.684Z,100617.08
2018-11-04T10:29:33.808Z,100616.69
2018-11-04T10:32:02.000Z,100609.00
2018-11-04T10:34:30.047Z,100607.83
2018-11-04T10:36:58.083Z,100603.23
2018-11-04T10:39:26.361Z,100602.53
2018-11-04T10:41:54.519Z,100601.08
2018-11-04T10:44:22.616Z,100610.03
2018-11-04T10:46:50.600Z,100595.42
2018-11-04T10:49:18.743Z,100599.84
2018-11-04T10:51:46.826Z,100594.08
2018-11-04T10:54:14.945Z,100594.81
2018-11-04T10:56:42.934Z,100591.94
2018-11-04T10:59:10.990Z,100586.14
2018-11-04T11:01:39.020Z,100585.34
2018-11-04T11:04:07.054Z,100592.73
2018-11-04T11:06:35.141Z,100583.83
2018-11-04T11:09:04.226Z,100583.34
2018-11-04T11:11:32.228Z,100580.14
2018-11-04T11:14:00.231Z,100580.95
2018-11-04T11:16:28.183Z,100577.84
2018-11-04T11:18:56.203Z,100565.13
2018-11-04T11:21:24.209Z,100570.66
2018-11-04T11:23:52.184Z,100562.16
2018-11-04T11:26:20.221Z,100563.61
2018-11-04T11:28:48.294Z,100558.48
2018-11-04T11:31:16.627Z,100551.93
2018-11-04T11:33:44.637Z,100548.00
2018-11-04T11:36:12.629Z,100537.49
2018-11-04T11:38:40.769Z,100542.42
2018-11-04T11:41:08.707Z,100530.12
2018-11-04T11:43:36.745Z,100537.32
2018-11-04T11:46:04.988Z,100530.77
2018-11-04T11:48:33.115Z,100530.39
2018-11-04T11:51:01.130Z,100536.45
2018-11-04T11:53:29.292Z,100527.41
2018-11-04T11:55:57.313Z,100524.80
2018-11-04T11:58:25.272Z,100519.66
2018-11-04T12:00:53.337Z,100520.38
2018-11-04T12:03:21.271Z,100522.77
2018-11-04T12:05:49.316Z,100515.95
2018-11-04T12:08:17.280Z,100518.24
2018-11-04T12:10:45.349Z,100512.50
2018-11-04T12:13:13.305Z,100512.64
2018-11-04T12:15:41.374Z,100507.84
2018-11-04T12:18:09.333Z,100498.30
2018-11-04T12:20:37.506Z,100492.95
2018-11-04T12:23:05.554Z,100498.30
2018-11-04T12:25:33.643Z,100492.36
2018-11-04T12:28:01.718Z,100491.05
2018-11-04T12:30:29.840Z,100481.13
2018-11-04T12:32:57.852Z,100479.08
2018-11-04T12:35:25.969Z,100472.03
2018-11-04T12:37:54.034Z,100473.83
2018-11-04T12:40:22.177Z,100477.41
2018-11-04T12:42:50.222Z,100472.39
2018-11-04T12:45:18.395Z,100468.20
2018-11-04T12:47:46.364Z,100472.73
2018-11-04T12:50:14.423Z,100463.66
2018-11-04T12:52:42.397Z,100455.66
2018-11-04T12:55:10.528Z,100452.67
2018-11-04T12:57:38.537Z,100452.80
2018-11-04T13:00:09.699Z,100443.20
2018-11-04T13:02:38.020Z,100446.45
2018-11-04T13:05:08.238Z,100443.94
2018-11-04T13:07:36.539Z,100443.44
2018-11-04T13:10:07.113Z,100432.80
2018-11-04T13:12:35.290Z,100435.74
2018-11-04T13:15:03.753Z,100433.70
2018-11-04T13:17:31.991Z,100432.72
2018-11-04T13:20:00.196Z,100427.92
2018-11-04T13:22:28.173Z,100433.85
2018-11-04T13:24:56.583Z,100432.05
2018-11-04T13:27:24.665Z,100427.55
2018-11-04T13:29:52.863Z,100423.48
2018-11-04T13:32:21.097Z,100423.15
2018-11-04T13:34:49.364Z,100418.09
2018-11-04T13:37:17.626Z,100413.94
2018-11-04T13:39:45.733Z,100412.86
2018-11-04T13:42:13.761Z,100405.45
2018-11-04T13:44:42.072Z,100404.25
2018-11-04T13:47:10.224Z,100405.33
2018-11-04T13:49:38.508Z,100395.41
2018-11-04T13:52:06.784Z,100394.20
2018-11-04T13:54:35.052Z,100382.97
2018-11-04T13:57:03.832Z,100386.31
2018-11-04T13:59:31.964Z,100378.88
2018-11-04T14:02:00.325Z,100379.82
2018-11-04T14:04:28.567Z,100375.53
2018-11-04T14:06:58.284Z,100373.61
2018-11-04T14:09:27.224Z,100372.76
2018-11-04T14:11:56.516Z,100368.47
2018-11-04T14:14:24.726Z,100365.95
2018-11-04T14:16:53.064Z,100364.41
2018-11-04T14:19:21.884Z,100373.47
2018-11-04T14:21:50.284Z,100378.47
2018-11-04T14:24:18.405Z,100366.55
2018-11-04T14:26:46.744Z,100362.42
2018-11-04T14:29:14.924Z,100356.22
2018-11-04T14:31:42.953Z,100353.62
2018-11-04T14:34:10.928Z,100348.29
2018-11-04T14:36:39.101Z,100357.31
2018-11-04T14:39:08.495Z,100348.16
2018-11-04T14:41:36.496Z,100347.42
2018-11-04T14:44:04.956Z,100351.85
2018-11-04T14:46:33.736Z,100354.34
2018-11-04T14:49:01.971Z,100354.29
2018-11-04T14:51:34.806Z,100353.75
2018-11-04T14:54:04.383Z,100352.20
2018-11-04T14:56:32.801Z,100350.91
2018-11-04T14:59:01.012Z,100348.73
2018-11-04T15:01:29.333Z,100346.11
2018-11-04T15:03:58.013Z,100349.83
2018-11-04T15:06:26.956Z,100341.36
2018-11-04T15:08:55.201Z,100343.05
2018-11-04T15:11:24.688Z,100336.04
2018-11-04T15:13:54.390Z,100334.84
2018-11-04T15:16:25.027Z,100337.47
2018-11-04T15:18:53.262Z,100330.55
2018-11-04T15:21:21.493Z,100338.80
2018-11-04T15:23:49.673Z,100338.32
2018-11-04T15:26:17.866Z,100326.64
2018-11-04T15:28:46.213Z,100328.15
2018-11-04T15:31:14.325Z,100326.64
2018-11-04T15:33:42.305Z,100323.86
2018-11-04T15:36:10.340Z,100326.27
2018-11-04T15:38:38.410Z,100315.14
2018-11-04T15:41:06.489Z,100322.69
2018-11-04T15:43:34.556Z,100322.08
2018-11-04T15:46:02.621Z,100307.02
2018-11-04T15:48:30.711Z,100306.19
2018-11-04T15:50:58.721Z,100300.22
2018-11-04T15:53:26.786Z,100299.39
2018-11-04T15:55:54.816Z,100293.41
2018-11-04T15:58:22.884Z,100294.16
2018-11-04T16:00:50.920Z,100301.44
2018-11-04T16:03:18.947Z,100298.37
2018-11-04T16:05:47.006Z,100304.08
2018-11-04T16:08:15.074Z,100298.23
2018-11-04T16:10:43.185Z,100301.81
2018-11-04T16:13:11.312Z,100291.32
2018-11-04T16:15:39.330Z,100285.21
2018-11-04T16:18:07.427Z,100294.45
2018-11-04T16:20:35.391Z,100287.72
2018-11-04T16:23:03.456Z,100286.28
2018-11-04T16:25:31.595Z,100290.40
2018-11-04T16:27:59.650Z,100291.20
2018-11-04T16:30:27.964Z,100299.58
2018-11-04T16:32:55.986Z,100298.20
2018-11-04T16:35:24.189Z,100294.40
2018-11-04T16:37:52.418Z,100296.72
2018-11-04T16:40:20.485Z,100293.26
2018-11-04T16:42:48.575Z,100295.69
2018-11-04T16:45:16.799Z,100298.31
2018-11-04T16:47:44.944Z,100303.19
2018-11-04T16:50:13.739Z,100302.73
2018-11-04T16:52:42.606Z,100292.22
2018-11-04T16:55:11.305Z,100292.31
2018-11-04T16:57:39.391Z,100292.20
2018-11-04T17:00:09.009Z,100294.80
2018-11-04T17:02:37.716Z,100298.40
2018-11-04T17:05:06.746Z,100303.80
2018-11-04T17:07:34.845Z,100311.81
2018-11-04T17:10:03.101Z,100315.78
2018-11-04T17:12:31.173Z,100325.80
2018-11-04T17:14:59.302Z,100333.36
2018-11-04T17:17:27.545Z,100330.50
2018-11-04T17:19:55.761Z,100328.13
2018-11-04T17:22:23.891Z,100328.47
2018-11-04T17:24:52.388Z,100332.91
2018-11-04T17:27:20.528Z,100335.88
2018-11-04T17:29:48.706Z,100331.20
2018-11-04T17:32:16.700Z,100331.69
2018-11-04T17:34:44.923Z,100321.41
2018-11-04T17:37:13.227Z,100324.53
2018-11-04T17:39:41.518Z,100329.19
2018-11-04T17:42:09.898Z,100322.48
2018-11-04T17:44:38.179Z,100315.06
2018-11-04T17:47:06.568Z,100309.95
2018-11-04T17:49:34.888Z,100301.00
2018-11-04T17:52:03.277Z,100307.80
2018-11-04T17:54:31.746Z,100298.50
2018-11-04T17:57:00.366Z,100300.41
2018-11-04T17:59:28.922Z,100291.94
2018-11-04T18:01:57.345Z,100283.84
2018-11-04T18:04:25.988Z,100285.16
2018-11-04T18:06:54.549Z,100288.53
2018-11-04T18:09:23.031Z,100293.06
2018-11-04T18:11:51.357Z,100287.81
2018-11-04T18:14:19.867Z,100287.44
2018-11-04T18:16:48.328Z,100292.69
2018-11-04T18:19:16.619Z,100293.91
2018-11-04T18:21:45.038Z,100288.77
2018-11-04T18:24:13.415Z,100283.66
2018-11-04T18:26:42.006Z,100290.22
2018-11-04T18:29:10.793Z,100289.73
2018-11-04T18:31:39.356Z,100287.22
2018-11-04T18:34:07.856Z,100285.91
2018-11-04T18:36:36.397Z,100285.31
2018-11-04T18:39:06.556Z,100277.80
2018-11-04T18:41:35.097Z,100290.56
2018-11-04T18:44:03.571Z,100298.19
2018-11-04T18:46:32.193Z,100297.13
2018-11-04T18:49:00.642Z,100294.16
2018-11-04T18:51:29.094Z,100294.75
2018-11-04T18:53:57.493Z,100285.67
2018-11-04T18:56:25.981Z,100279.01
2018-11-04T18:58:54.843Z,100273.16
2018-11-04T19:01:23.488Z,100286.40
2018-11-04T19:03:51.980Z,100286.65
2018-11-04T19:06:20.528Z,100276.98
2018-11-04T19:08:49.042Z,100281.17
2018-11-04T19:11:17.694Z,100283.55
2018-11-04T19:13:46.017Z,100280.20
2018-11-04T19:16:14.697Z,100282.48
2018-11-04T19:18:43.347Z,100280.83
2018-11-04T19:21:11.957Z,100277.96
2018-11-04T19:23:40.486Z,100280.59
2018-11-04T19:26:09.173Z,100281.08
2018-11-04T19:28:37.877Z,100277.72
2018-11-04T19:31:06.595Z,100275.45
2018-11-04T19:33:35.115Z,100269.26
2018-11-04T19:36:03.769Z,100267.46
2018-11-04T19:38:33.366Z,100260.66
2018-11-04T19:41:01.969Z,100258.52
2018-11-04T19:43:30.337Z,100257.31
2018-11-04T19:45:58.903Z,100252.30
2018-11-04T19:48:27.505Z,100261.38
2018-11-04T19:50:56.000Z,100248.47
2018-11-04T19:53:24.457Z,100241.08
2018-11-04T19:55:52.884Z,100246.33
2018-11-04T19:58:21.525Z,100241.47
2018-11-04T20:00:49.990Z,100241.67
2018-11-04T20:03:18.486Z,100236.08
2018-11-04T20:05:46.974Z,100238.11
2018-11-04T20:08:15.485Z,100237.28
2018-11-04T20:10:43.972Z,100239.78
2018-11-04T20:13:17.584Z,100226.91
2018-11-04T20:15:46.119Z,100222.00
2018-11-04T20:18:19.996Z,100222.97
2018-11-04T20:20:48.444Z,100221.31
2018-11-04T20:23:16.776Z,100227.74
2018-11-04T20:25:50.631Z,100221.18
2018-11-04T20:28:18.976Z,100225.01
2018-11-04T20:30:47.401Z,100224.05
2018-11-04T20:33:16.341Z,100232.64
2018-11-04T20:35:44.728Z,100227.74
2018-11-04T20:38:13.152Z,100219.52
2018-11-04T20:40:46.944Z,100218.70
2018-11-04T20:43:15.190Z,100225.60
2018-11-04T20:45:43.599Z,100232.99
2018-11-04T20:48:17.284Z,100228.47
2018-11-04T20:50:51.006Z,100221.53
2018-11-04T20:53:19.374Z,100223.46
2018-11-04T20:55:52.994Z,100222.63
2018-11-04T20:58:21.554Z,100215.83
2018-11-04T21:00:49.874Z,100210.82
2018-11-04T21:03:18.070Z,100209.62
2018-11-04T21:05:46.272Z,100209.96
2018-11-04T21:08:14.345Z,100214.38
2018-11-04T21:10:42.559Z,100207.95
2018-11-04T21:13:10.709Z,100208.20
2018-11-04T21:15:38.788Z,100199.84
2018-11-04T21:18:07.131Z,100208.30
2018-11-04T21:20:35.304Z,100206.87
2018-11-04T21:23:03.620Z,100204.37
2018-11-04T21:25:32.108Z,100203.89
2018-11-04T21:28:00.281Z,100205.45
2018-11-04T21:30:28.368Z,100201.28
2018-11-04T21:32:56.491Z,100196.03
2018-11-04T21:35:24.947Z,100193.66
2018-11-04T21:37:53.470Z,100184.58
2018-11-04T21:40:21.664Z,100191.52
2018-11-04T21:42:50.020Z,100194.38
2018-11-04T21:45:18.169Z,100191.77
2018-11-04T21:47:46.449Z,100182.20
2018-11-04T21:50:14.760Z,100170.39
2018-11-04T21:52:42.920Z,100172.53
2018-11-04T21:55:12.552Z,100172.19
2018-11-04T21:57:41.822Z,100168.61
2018-11-04T22:00:12.235Z,100163.84
2018-11-04T22:02:40.502Z,100158.25
2018-11-04T22:05:09.402Z,100153.95
2018-11-04T22:07:37.701Z,100145.26
2018-11-04T22:10:08.314Z,100151.33
2018-11-04T22:12:36.329Z,100152.89
2018-11-04T22:15:04.714Z,100143.70
2018-11-04T22:17:32.764Z,100147.06
2018-11-04T22:20:00.779Z,100144.44
2018-11-04T22:22:28.874Z,100141.09
2018-11-04T22:24:56.949Z,100143.02
2018-11-04T22:27:25.024Z,100139.66
2018-11-04T22:29:53.069Z,100133.95
2018-11-04T22:32:21.078Z,100131.42
2018-11-04T22:34:49.178Z,100130.84
2018-11-04T22:37:17.760Z,100130.02
2018-11-04T22:39:45.740Z,100139.68
2018-11-04T22:42:14.062Z,100141.09
2018-11-04T22:44:42.071Z,100143.62
2018-11-04T22:47:10.119Z,100126.33
2018-11-04T22:49:38.048Z,100129.45
2018-11-04T22:52:06.139Z,100126.82
2018-11-04T22:54:34.087Z,100127.89
2018-11-04T22:57:02.222Z,100124.89
2018-11-04T22:59:30.322Z,100117.75
2018-11-04T23:01:58.400Z,100118.47
2018-11-04T23:04:31.799Z,100122.02
2018-11-04T23:06:59.808Z,100113.57
2018-11-04T23:09:27.956Z,100110.61
2018-11-04T23:11:56.043Z,100107.27
2018-11-04T23:14:24.185Z,100101.19
2018-11-04T23:16:52.102Z,100092.36
2018-11-04T23:19:20.128Z,100088.08
2018-11-04T23:21:48.212Z,100089.64
2018-11-04T23:24:16.161Z,100092.50
2018-11-04T23:26:44.200Z,100099.16
2018-11-04T23:29:12.184Z,100102.03
2018-11-04T23:31:40.237Z,100099.99
2018-11-04T23:34:08.172Z,100095.00
2018-11-04T23:36:36.262Z,100096.66
2018-11-04T23:39:05.721Z,100091.54
2018-11-04T23:41:34.913Z,100090.23
2018-11-04T23:44:02.937Z,100090.83
2018-11-04T23:46:30.961Z,100091.41
2018-11-04T23:48:58.961Z,100080.23
2018-11-04T23:51:26.997Z,100081.17
2018-11-04T23:53:55.017Z,100073.45
2018-11-04T23:56:23.021Z,100071.53
2018-11-04T23:58:51.014Z,100066.19
